sensor_id;sensor_type;location;lat;lon;timestamp;temperature;humidity
19610;DHT22;9952;47.122;-1.638;2022-08-21T00:00:46;16.50;99.90
19610;DHT22;9952;47.122;-1.638;2022-08-21T00:05:29;16.40;99.90
19610;DHT22;9952;47.122;-1.638;2022-08-21T00:10:11;16.40;99.90
19610;DHT22;9952;47.122;-1.638;2022-08-21T00:14:52;16.30;99.90
19610;DHT22;9952;47.122;-1.638;2022-08-21T00:19:33;16.30;99.90
19610;DHT22;9952;47.122;-1.638;2022-08-21T00:24:14;16.20;99.90
19610;DHT22;9952;47.122;-1.638;2022-08-21T00:28:55;16.20;99.90
19610;DHT22;9952;47.122;-1.638;2022-08-21T00:33:35;16.20;99.90
19610;DHT22;9952;47.122;-1.638;2022-08-21T00:38:16;16.10;99.90
19610;DHT22;9952;47.122;-1.638;2022-08-21T00:42:57;16.10;99.90
19610;DHT22;9952;47.122;-1.638;2022-08-21T00:47:38;16.10;99.90
19610;DHT22;9952;47.122;-1.638;2022-08-21T00:52:23;16.00;99.90
19610;DHT22;9952;47.122;-1.638;2022-08-21T00:57:14;16.00;99.90
19610;DHT22;9952;47.122;-1.638;2022-08-21T01:01:56;16.00;99.90
19610;DHT22;9952;47.122;-1.638;2022-08-21T01:06:37;15.90;99.90
19610;DHT22;9952;47.122;-1.638;2022-08-21T01:11:18;15.90;99.90
19610;DHT22;9952;47.122;-1.638;2022-08-21T01:16:00;15.90;99.90
19610;DHT22;9952;47.122;-1.638;2022-08-21T01:25:45;15.70;99.90
19610;DHT22;9952;47.122;-1.638;2022-08-21T01:30:27;15.70;99.90
19610;DHT22;9952;47.122;-1.638;2022-08-21T01:35:08;15.70;99.90
19610;DHT22;9952;47.122;-1.638;2022-08-21T01:39:49;15.70;99.90
19610;DHT22;9952;47.122;-1.638;2022-08-21T01:44:30;15.60;99.90
19610;DHT22;9952;47.122;-1.638;2022-08-21T01:49:11;15.60;99.90
19610;DHT22;9952;47.122;-1.638;2022-08-21T01:53:52;15.60;99.90
19610;DHT22;9952;47.122;-1.638;2022-08-21T01:58:32;15.50;99.90
19610;DHT22;9952;47.122;-1.638;2022-08-21T02:03:14;15.50;99.90
19610;DHT22;9952;47.122;-1.638;2022-08-21T02:07:55;15.50;99.90
19610;DHT22;9952;47.122;-1.638;2022-08-21T02:12:36;15.50;99.90
19610;DHT22;9952;47.122;-1.638;2022-08-21T02:17:16;15.50;99.90
19610;DHT22;9952;47.122;-1.638;2022-08-21T02:21:57;15.50;99.90
19610;DHT22;9952;47.122;-1.638;2022-08-21T02:26:38;15.50;99.90
19610;DHT22;9952;47.122;-1.638;2022-08-21T02:31:20;15.60;99.90
19610;DHT22;9952;47.122;-1.638;2022-08-21T02:36:01;15.60;99.90
19610;DHT22;9952;47.122;-1.638;2022-08-21T02:40:44;15.50;99.90
19610;DHT22;9952;47.122;-1.638;2022-08-21T02:45:26;15.50;99.90
19610;DHT22;9952;47.122;-1.638;2022-08-21T02:50:08;15.50;99.90
19610;DHT22;9952;47.122;-1.638;2022-08-21T02:54:49;15.50;99.90
19610;DHT22;9952;47.122;-1.638;2022-08-21T02:59:30;15.50;99.90
19610;DHT22;9952;47.122;-1.638;2022-08-21T03:04:10;15.40;99.90
19610;DHT22;9952;47.122;-1.638;2022-08-21T03:08:51;15.40;99.90
19610;DHT22;9952;47.122;-1.638;2022-08-21T03:13:32;15.30;99.90
19610;DHT22;9952;47.122;-1.638;2022-08-21T03:18:13;15.40;99.90
19610;DHT22;9952;47.122;-1.638;2022-08-21T03:22:55;15.40;99.90
19610;DHT22;9952;47.122;-1.638;2022-08-21T03:27:36;15.50;99.90
19610;DHT22;9952;47.122;-1.638;2022-08-21T03:32:17;15.60;99.90
19610;DHT22;9952;47.122;-1.638;2022-08-21T03:36:58;15.60;99.90
19610;DHT22;9952;47.122;-1.638;2022-08-21T03:41:38;15.70;99.90
19610;DHT22;9952;47.122;-1.638;2022-08-21T03:46:19;15.70;99.90
19610;DHT22;9952;47.122;-1.638;2022-08-21T03:51:00;15.80;99.90
19610;DHT22;9952;47.122;-1.638;2022-08-21T03:55:41;15.80;99.90
19610;DHT22;9952;47.122;-1.638;2022-08-21T04:00:23;15.90;99.90
19610;DHT22;9952;47.122;-1.638;2022-08-21T04:05:05;15.90;99.90
19610;DHT22;9952;47.122;-1.638;2022-08-21T04:09:46;16.00;99.90
19610;DHT22;9952;47.122;-1.638;2022-08-21T04:14:26;16.10;99.90
19610;DHT22;9952;47.122;-1.638;2022-08-21T04:19:08;16.10;99.90
19610;DHT22;9952;47.122;-1.638;2022-08-21T04:23:50;16.20;99.90
19610;DHT22;9952;47.122;-1.638;2022-08-21T04:28:30;16.20;99.90
19610;DHT22;9952;47.122;-1.638;2022-08-21T04:33:11;16.20;99.90
19610;DHT22;9952;47.122;-1.638;2022-08-21T04:37:52;16.20;99.90
19610;DHT22;9952;47.122;-1.638;2022-08-21T04:42:33;16.20;99.90
19610;DHT22;9952;47.122;-1.638;2022-08-21T04:47:21;16.30;99.90
19610;DHT22;9952;47.122;-1.638;2022-08-21T04:52:02;16.30;99.90
19610;DHT22;9952;47.122;-1.638;2022-08-21T05:01:33;16.40;99.90
19610;DHT22;9952;47.122;-1.638;2022-08-21T05:06:15;16.40;99.90
19610;DHT22;9952;47.122;-1.638;2022-08-21T05:10:57;16.50;99.90
19610;DHT22;9952;47.122;-1.638;2022-08-21T05:15:40;16.40;99.90
19610;DHT22;9952;47.122;-1.638;2022-08-21T05:20:20;16.40;99.90
19610;DHT22;9952;47.122;-1.638;2022-08-21T05:25:01;16.40;99.90
19610;DHT22;9952;47.122;-1.638;2022-08-21T05:29:43;16.40;99.90
19610;DHT22;9952;47.122;-1.638;2022-08-21T05:34:24;16.40;99.90
19610;DHT22;9952;47.122;-1.638;2022-08-21T05:39:05;16.40;99.90
19610;DHT22;9952;47.122;-1.638;2022-08-21T05:43:46;16.40;99.90
19610;DHT22;9952;47.122;-1.638;2022-08-21T05:48:27;16.40;99.90
19610;DHT22;9952;47.122;-1.638;2022-08-21T05:53:08;16.40;99.90
19610;DHT22;9952;47.122;-1.638;2022-08-21T05:57:50;16.40;99.90
19610;DHT22;9952;47.122;-1.638;2022-08-21T06:02:30;16.40;99.90
19610;DHT22;9952;47.122;-1.638;2022-08-21T06:07:11;16.40;99.90
19610;DHT22;9952;47.122;-1.638;2022-08-21T06:11:52;16.50;99.90
19610;DHT22;9952;47.122;-1.638;2022-08-21T06:16:33;16.50;99.90
19610;DHT22;9952;47.122;-1.638;2022-08-21T06:21:14;16.60;99.90
19610;DHT22;9952;47.122;-1.638;2022-08-21T06:25:55;16.60;99.90
19610;DHT22;9952;47.122;-1.638;2022-08-21T06:30:38;16.70;99.90
19610;DHT22;9952;47.122;-1.638;2022-08-21T06:35:19;16.70;99.90
19610;DHT22;9952;47.122;-1.638;2022-08-21T06:40:00;16.80;99.90
19610;DHT22;9952;47.122;-1.638;2022-08-21T06:44:41;16.90;99.90
19610;DHT22;9952;47.122;-1.638;2022-08-21T06:49:22;16.90;99.90
19610;DHT22;9952;47.122;-1.638;2022-08-21T06:54:03;17.00;99.90
19610;DHT22;9952;47.122;-1.638;2022-08-21T06:58:44;17.10;99.90
19610;DHT22;9952;47.122;-1.638;2022-08-21T07:03:31;17.20;99.90
19610;DHT22;9952;47.122;-1.638;2022-08-21T07:08:13;17.30;99.90
19610;DHT22;9952;47.122;-1.638;2022-08-21T07:12:54;17.30;99.90
19610;DHT22;9952;47.122;-1.638;2022-08-21T07:17:35;17.20;99.90
19610;DHT22;9952;47.122;-1.638;2022-08-21T07:22:18;17.30;99.90
19610;DHT22;9952;47.122;-1.638;2022-08-21T07:27:00;17.40;99.90
19610;DHT22;9952;47.122;-1.638;2022-08-21T07:31:41;17.40;99.90
19610;DHT22;9952;47.122;-1.638;2022-08-21T07:36:22;17.50;99.90
19610;DHT22;9952;47.122;-1.638;2022-08-21T07:41:18;17.50;99.90
19610;DHT22;9952;47.122;-1.638;2022-08-21T07:45:59;17.60;99.90
19610;DHT22;9952;47.122;-1.638;2022-08-21T07:50:41;17.60;99.90
19610;DHT22;9952;47.122;-1.638;2022-08-21T07:55:22;17.70;99.90
19610;DHT22;9952;47.122;-1.638;2022-08-21T08:00:05;17.70;99.90
19610;DHT22;9952;47.122;-1.638;2022-08-21T08:04:47;17.70;99.90
19610;DHT22;9952;47.122;-1.638;2022-08-21T08:09:28;17.70;99.90
19610;DHT22;9952;47.122;-1.638;2022-08-21T08:14:08;17.80;99.90
19610;DHT22;9952;47.122;-1.638;2022-08-21T08:18:49;17.90;99.90
19610;DHT22;9952;47.122;-1.638;2022-08-21T08:23:32;18.00;99.90
19610;DHT22;9952;47.122;-1.638;2022-08-21T08:28:13;18.10;99.90
19610;DHT22;9952;47.122;-1.638;2022-08-21T08:32:53;18.30;99.90
19610;DHT22;9952;47.122;-1.638;2022-08-21T08:37:35;18.40;99.90
19610;DHT22;9952;47.122;-1.638;2022-08-21T08:42:27;18.40;99.90
19610;DHT22;9952;47.122;-1.638;2022-08-21T08:47:10;18.50;99.90
19610;DHT22;9952;47.122;-1.638;2022-08-21T08:57:17;18.70;99.90
19610;DHT22;9952;47.122;-1.638;2022-08-21T09:01:58;18.90;99.90
19610;DHT22;9952;47.122;-1.638;2022-08-21T09:07:35;19.20;99.90
19610;DHT22;9952;47.122;-1.638;2022-08-21T09:27:35;19.80;99.90
19610;DHT22;9952;47.122;-1.638;2022-08-21T09:32:19;20.00;99.90
19610;DHT22;9952;47.122;-1.638;2022-08-21T09:37:00;20.00;99.90
19610;DHT22;9952;47.122;-1.638;2022-08-21T09:41:41;20.00;99.90
19610;DHT22;9952;47.122;-1.638;2022-08-21T09:46:24;20.10;99.90
19610;DHT22;9952;47.122;-1.638;2022-08-21T09:51:10;20.10;99.90
19610;DHT22;9952;47.122;-1.638;2022-08-21T09:55:57;20.10;99.90
19610;DHT22;9952;47.122;-1.638;2022-08-21T10:00:59;20.30;99.90
19610;DHT22;9952;47.122;-1.638;2022-08-21T10:05:49;20.30;99.90
19610;DHT22;9952;47.122;-1.638;2022-08-21T10:10:36;20.40;99.90
19610;DHT22;9952;47.122;-1.638;2022-08-21T10:20:27;20.40;99.90
19610;DHT22;9952;47.122;-1.638;2022-08-21T10:25:31;20.70;99.90
19610;DHT22;9952;47.122;-1.638;2022-08-21T10:30:20;21.00;99.90
19610;DHT22;9952;47.122;-1.638;2022-08-21T10:45:20;21.00;99.90
19610;DHT22;9952;47.122;-1.638;2022-08-21T10:54:52;21.00;99.90
19610;DHT22;9952;47.122;-1.638;2022-08-21T10:59:43;21.00;99.90
19610;DHT22;9952;47.122;-1.638;2022-08-21T11:09:20;21.20;99.90
19610;DHT22;9952;47.122;-1.638;2022-08-21T11:14:09;21.40;99.90
19610;DHT22;9952;47.122;-1.638;2022-08-21T11:18:58;21.40;99.90
19610;DHT22;9952;47.122;-1.638;2022-08-21T11:24:02;21.50;99.90
19610;DHT22;9952;47.122;-1.638;2022-08-21T11:28:58;21.50;99.90
19610;DHT22;9952;47.122;-1.638;2022-08-21T11:38:40;21.40;99.90
19610;DHT22;9952;47.122;-1.638;2022-08-21T11:43:35;21.50;99.90
19610;DHT22;9952;47.122;-1.638;2022-08-21T11:48:28;21.60;99.90
19610;DHT22;9952;47.122;-1.638;2022-08-21T11:53:57;21.80;99.90
19610;DHT22;9952;47.122;-1.638;2022-08-21T11:58:25;21.80;99.90
19610;DHT22;9952;47.122;-1.638;2022-08-21T12:03:15;21.70;99.90
19610;DHT22;9952;47.122;-1.638;2022-08-21T12:08:38;21.50;99.90
19610;DHT22;9952;47.122;-1.638;2022-08-21T12:13:25;21.40;99.90
19610;DHT22;9952;47.122;-1.638;2022-08-21T12:23:32;21.50;99.90
19610;DHT22;9952;47.122;-1.638;2022-08-21T12:28:21;21.60;99.90
19610;DHT22;9952;47.122;-1.638;2022-08-21T12:33:06;21.70;99.90
19610;DHT22;9952;47.122;-1.638;2022-08-21T12:42:41;22.30;99.90
19610;DHT22;9952;47.122;-1.638;2022-08-21T12:47:49;22.40;99.90
19610;DHT22;9952;47.122;-1.638;2022-08-21T12:57:36;22.30;99.90
19610;DHT22;9952;47.122;-1.638;2022-08-21T13:02:22;22.10;99.90
19610;DHT22;9952;47.122;-1.638;2022-08-21T13:07:10;22.00;99.90
19610;DHT22;9952;47.122;-1.638;2022-08-21T13:11:52;21.90;99.90
19610;DHT22;9952;47.122;-1.638;2022-08-21T13:16:34;21.90;99.90
19610;DHT22;9952;47.122;-1.638;2022-08-21T13:21:15;22.00;99.90
19610;DHT22;9952;47.122;-1.638;2022-08-21T13:25:56;22.00;99.90
19610;DHT22;9952;47.122;-1.638;2022-08-21T13:30:43;22.10;99.90
19610;DHT22;9952;47.122;-1.638;2022-08-21T13:35:35;22.20;99.90
19610;DHT22;9952;47.122;-1.638;2022-08-21T13:40:20;22.20;99.90
19610;DHT22;9952;47.122;-1.638;2022-08-21T13:45:02;22.20;99.90
19610;DHT22;9952;47.122;-1.638;2022-08-21T13:49:46;22.20;99.90
19610;DHT22;9952;47.122;-1.638;2022-08-21T13:54:37;22.20;99.90
19610;DHT22;9952;47.122;-1.638;2022-08-21T13:59:44;22.00;99.90
19610;DHT22;9952;47.122;-1.638;2022-08-21T14:04:36;22.10;99.90
19610;DHT22;9952;47.122;-1.638;2022-08-21T14:09:28;22.00;99.90
19610;DHT22;9952;47.122;-1.638;2022-08-21T14:14:24;22.00;99.90
19610;DHT22;9952;47.122;-1.638;2022-08-21T14:19:15;22.10;99.90
19610;DHT22;9952;47.122;-1.638;2022-08-21T14:24:13;22.20;99.90
19610;DHT22;9952;47.122;-1.638;2022-08-21T14:28:59;22.00;99.90
19610;DHT22;9952;47.122;-1.638;2022-08-21T14:33:41;22.00;99.90
19610;DHT22;9952;47.122;-1.638;2022-08-21T14:38:24;22.00;99.90
19610;DHT22;9952;47.122;-1.638;2022-08-21T14:43:05;21.90;99.90
19610;DHT22;9952;47.122;-1.638;2022-08-21T14:47:46;21.40;99.90
19610;DHT22;9952;47.122;-1.638;2022-08-21T14:52:26;21.20;99.90
19610;DHT22;9952;47.122;-1.638;2022-08-21T14:57:09;21.10;99.90
19610;DHT22;9952;47.122;-1.638;2022-08-21T15:01:51;21.00;99.90
19610;DHT22;9952;47.122;-1.638;2022-08-21T15:11:33;20.60;99.90
19610;DHT22;9952;47.122;-1.638;2022-08-21T15:16:14;20.40;99.90
19610;DHT22;9952;47.122;-1.638;2022-08-21T15:20:55;20.30;99.90
19610;DHT22;9952;47.122;-1.638;2022-08-21T15:25:36;20.30;99.90
19610;DHT22;9952;47.122;-1.638;2022-08-21T15:30:20;20.30;99.90
19610;DHT22;9952;47.122;-1.638;2022-08-21T15:35:01;20.20;99.90
19610;DHT22;9952;47.122;-1.638;2022-08-21T15:39:43;20.20;99.90
19610;DHT22;9952;47.122;-1.638;2022-08-21T15:44:25;20.00;99.90
19610;DHT22;9952;47.122;-1.638;2022-08-21T15:49:06;20.10;99.90
19610;DHT22;9952;47.122;-1.638;2022-08-21T15:53:48;19.90;99.90
19610;DHT22;9952;47.122;-1.638;2022-08-21T15:58:28;19.80;99.90
19610;DHT22;9952;47.122;-1.638;2022-08-21T16:03:13;19.80;99.90
19610;DHT22;9952;47.122;-1.638;2022-08-21T16:07:57;19.80;99.90
19610;DHT22;9952;47.122;-1.638;2022-08-21T16:12:43;19.80;99.90
19610;DHT22;9952;47.122;-1.638;2022-08-21T16:17:29;19.60;99.90
19610;DHT22;9952;47.122;-1.638;2022-08-21T16:22:10;19.60;99.90
19610;DHT22;9952;47.122;-1.638;2022-08-21T16:26:51;19.70;99.90
19610;DHT22;9952;47.122;-1.638;2022-08-21T16:31:32;19.70;99.90
19610;DHT22;9952;47.122;-1.638;2022-08-21T16:36:14;19.80;99.90
19610;DHT22;9952;47.122;-1.638;2022-08-21T16:40:55;19.90;99.90
19610;DHT22;9952;47.122;-1.638;2022-08-21T16:45:36;20.00;99.90
19610;DHT22;9952;47.122;-1.638;2022-08-21T16:50:22;19.90;99.90
19610;DHT22;9952;47.122;-1.638;2022-08-21T16:55:04;20.00;99.90
19610;DHT22;9952;47.122;-1.638;2022-08-21T16:59:45;20.00;99.90
19610;DHT22;9952;47.122;-1.638;2022-08-21T17:04:25;20.00;99.90
19610;DHT22;9952;47.122;-1.638;2022-08-21T17:09:07;20.10;99.90
19610;DHT22;9952;47.122;-1.638;2022-08-21T17:13:48;20.20;99.90
19610;DHT22;9952;47.122;-1.638;2022-08-21T17:18:29;20.20;99.90
19610;DHT22;9952;47.122;-1.638;2022-08-21T17:23:10;20.10;99.90
19610;DHT22;9952;47.122;-1.638;2022-08-21T17:27:51;20.10;99.90
19610;DHT22;9952;47.122;-1.638;2022-08-21T17:32:32;20.20;99.90
19610;DHT22;9952;47.122;-1.638;2022-08-21T17:37:14;20.10;99.90
19610;DHT22;9952;47.122;-1.638;2022-08-21T17:41:55;20.10;99.90
19610;DHT22;9952;47.122;-1.638;2022-08-21T17:46:41;20.10;99.90
19610;DHT22;9952;47.122;-1.638;2022-08-21T17:51:22;20.10;99.90
19610;DHT22;9952;47.122;-1.638;2022-08-21T17:56:04;20.30;99.90
19610;DHT22;9952;47.122;-1.638;2022-08-21T18:06:42;20.20;99.90
19610;DHT22;9952;47.122;-1.638;2022-08-21T18:11:27;20.10;99.90
19610;DHT22;9952;47.122;-1.638;2022-08-21T18:16:12;20.10;99.90
19610;DHT22;9952;47.122;-1.638;2022-08-21T18:20:58;20.00;99.90
19610;DHT22;9952;47.122;-1.638;2022-08-21T18:25:43;20.00;99.90
19610;DHT22;9952;47.122;-1.638;2022-08-21T18:30:25;20.00;99.90
19610;DHT22;9952;47.122;-1.638;2022-08-21T18:35:08;19.90;99.90
19610;DHT22;9952;47.122;-1.638;2022-08-21T18:39:49;19.90;99.90
19610;DHT22;9952;47.122;-1.638;2022-08-21T18:44:30;19.90;99.90
19610;DHT22;9952;47.122;-1.638;2022-08-21T18:49:11;19.90;99.90
19610;DHT22;9952;47.122;-1.638;2022-08-21T18:53:52;19.90;99.90
19610;DHT22;9952;47.122;-1.638;2022-08-21T18:58:34;19.80;99.90
19610;DHT22;9952;47.122;-1.638;2022-08-21T19:03:18;19.80;99.90
19610;DHT22;9952;47.122;-1.638;2022-08-21T19:07:59;19.70;99.90
19610;DHT22;9952;47.122;-1.638;2022-08-21T19:12:43;19.60;99.90
19610;DHT22;9952;47.122;-1.638;2022-08-21T19:17:25;19.50;99.90
19610;DHT22;9952;47.122;-1.638;2022-08-21T19:22:06;19.50;99.90
19610;DHT22;9952;47.122;-1.638;2022-08-21T19:26:47;19.50;99.90
19610;DHT22;9952;47.122;-1.638;2022-08-21T19:31:31;19.50;99.90
19610;DHT22;9952;47.122;-1.638;2022-08-21T19:36:13;19.50;99.90
19610;DHT22;9952;47.122;-1.638;2022-08-21T19:40:55;19.50;99.90
19610;DHT22;9952;47.122;-1.638;2022-08-21T19:45:36;19.50;99.90
19610;DHT22;9952;47.122;-1.638;2022-08-21T19:50:17;19.40;99.90
19610;DHT22;9952;47.122;-1.638;2022-08-21T19:54:58;19.40;99.90
19610;DHT22;9952;47.122;-1.638;2022-08-21T19:59:39;19.30;99.90
19610;DHT22;9952;47.122;-1.638;2022-08-21T20:04:22;19.30;99.90
19610;DHT22;9952;47.122;-1.638;2022-08-21T20:09:03;19.30;99.90
19610;DHT22;9952;47.122;-1.638;2022-08-21T20:13:44;19.30;99.90
19610;DHT22;9952;47.122;-1.638;2022-08-21T20:18:26;19.30;99.90
19610;DHT22;9952;47.122;-1.638;2022-08-21T20:23:07;19.30;99.90
19610;DHT22;9952;47.122;-1.638;2022-08-21T20:27:47;19.30;99.90
19610;DHT22;9952;47.122;-1.638;2022-08-21T20:32:28;19.30;99.90
19610;DHT22;9952;47.122;-1.638;2022-08-21T20:37:09;19.30;99.90
19610;DHT22;9952;47.122;-1.638;2022-08-21T20:41:51;19.30;99.90
19610;DHT22;9952;47.122;-1.638;2022-08-21T20:46:34;19.30;99.90
19610;DHT22;9952;47.122;-1.638;2022-08-21T20:51:23;19.30;99.90
19610;DHT22;9952;47.122;-1.638;2022-08-21T20:56:05;19.30;99.90
19610;DHT22;9952;47.122;-1.638;2022-08-21T21:00:48;19.30;99.90
19610;DHT22;9952;47.122;-1.638;2022-08-21T21:05:38;19.40;99.90
19610;DHT22;9952;47.122;-1.638;2022-08-21T21:10:48;19.30;99.90
19610;DHT22;9952;47.122;-1.638;2022-08-21T21:15:32;19.40;99.90
19610;DHT22;9952;47.122;-1.638;2022-08-21T21:20:20;19.40;99.90
19610;DHT22;9952;47.122;-1.638;2022-08-21T21:25:07;19.30;99.90
19610;DHT22;9952;47.122;-1.638;2022-08-21T21:30:31;19.40;99.90
19610;DHT22;9952;47.122;-1.638;2022-08-21T21:35:12;19.30;99.90
19610;DHT22;9952;47.122;-1.638;2022-08-21T21:40:24;19.30;99.90
19610;DHT22;9952;47.122;-1.638;2022-08-21T21:50:25;19.30;99.90
19610;DHT22;9952;47.122;-1.638;2022-08-21T21:55:35;19.30;99.90
19610;DHT22;9952;47.122;-1.638;2022-08-21T22:00:22;19.30;99.90
19610;DHT22;9952;47.122;-1.638;2022-08-21T22:05:25;19.30;99.90
19610;DHT22;9952;47.122;-1.638;2022-08-21T22:10:35;19.30;99.90
19610;DHT22;9952;47.122;-1.638;2022-08-21T22:15:20;19.30;99.90
19610;DHT22;9952;47.122;-1.638;2022-08-21T22:20:06;19.30;99.90
19610;DHT22;9952;47.122;-1.638;2022-08-21T22:24:53;19.30;99.90
19610;DHT22;9952;47.122;-1.638;2022-08-21T22:29:53;19.30;99.90
19610;DHT22;9952;47.122;-1.638;2022-08-21T22:34:35;19.30;99.90
19610;DHT22;9952;47.122;-1.638;2022-08-21T22:39:27;19.30;99.90
19610;DHT22;9952;47.122;-1.638;2022-08-21T22:44:25;19.30;99.90
19610;DHT22;9952;47.122;-1.638;2022-08-21T22:49:50;19.30;99.90
19610;DHT22;9952;47.122;-1.638;2022-08-21T22:54:33;19.30;99.90
19610;DHT22;9952;47.122;-1.638;2022-08-21T22:59:28;19.20;99.90
19610;DHT22;9952;47.122;-1.638;2022-08-21T23:04:21;19.20;99.90
19610;DHT22;9952;47.122;-1.638;2022-08-21T23:09:03;19.10;99.90
19610;DHT22;9952;47.122;-1.638;2022-08-21T23:13:49;19.20;99.90
19610;DHT22;9952;47.122;-1.638;2022-08-21T23:23:29;19.20;99.90
